sensor_id;sensor_type;location;lat;lon;timestamp;P1;durP1;ratioP1;P2;durP2;ratioP2
80293;SDS011;69594;43.516;1.498;2023-06-26T00:00:44;15.07;;;7.63;;
80293;SDS011;69594;43.516;1.498;2023-06-26T00:03:09;15.00;;;7.07;;
80293;SDS011;69594;43.516;1.498;2023-06-26T00:05:40;12.18;;;6.80;;
80293;SDS011;69594;43.516;1.498;2023-06-26T00:08:07;11.88;;;6.70;;
80293;SDS011;69594;43.516;1.498;2023-06-26T00:10:32;11.20;;;6.53;;
80293;SDS011;69594;43.516;1.498;2023-06-26T00:12:57;10.80;;;6.47;;
80293;SDS011;69594;43.516;1.498;2023-06-26T00:15:23;14.77;;;6.20;;
80293;SDS011;69594;43.516;1.498;2023-06-26T00:17:49;12.57;;;6.97;;
80293;SDS011;69594;43.516;1.498;2023-06-26T00:20:15;13.85;;;6.60;;
80293;SDS011;69594;43.516;1.498;2023-06-26T00:22:41;10.40;;;6.40;;
80293;SDS011;69594;43.516;1.498;2023-06-26T00:25:07;13.10;;;6.77;;
80293;SDS011;69594;43.516;1.498;2023-06-26T00:27:33;11.10;;;6.17;;
80293;SDS011;69594;43.516;1.498;2023-06-26T00:30:01;14.32;;;6.53;;
80293;SDS011;69594;43.516;1.498;2023-06-26T00:32:26;13.80;;;6.37;;
80293;SDS011;69594;43.516;1.498;2023-06-26T00:34:52;13.68;;;7.35;;
80293;SDS011;69594;43.516;1.498;2023-06-26T00:37:18;13.33;;;6.20;;
80293;SDS011;69594;43.516;1.498;2023-06-26T00:39:43;14.05;;;6.88;;
80293;SDS011;69594;43.516;1.498;2023-06-26T00:42:09;10.87;;;6.33;;
80293;SDS011;69594;43.516;1.498;2023-06-26T00:44:34;12.47;;;6.57;;
80293;SDS011;69594;43.516;1.498;2023-06-26T00:46:59;13.63;;;6.77;;
80293;SDS011;69594;43.516;1.498;2023-06-26T00:49:26;14.77;;;6.82;;
80293;SDS011;69594;43.516;1.498;2023-06-26T00:51:52;11.65;;;6.43;;
80293;SDS011;69594;43.516;1.498;2023-06-26T00:54:18;11.75;;;6.68;;
80293;SDS011;69594;43.516;1.498;2023-06-26T00:56:48;12.03;;;6.43;;
80293;SDS011;69594;43.516;1.498;2023-06-26T00:59:14;13.38;;;6.93;;
80293;SDS011;69594;43.516;1.498;2023-06-26T01:01:39;11.93;;;6.63;;
80293;SDS011;69594;43.516;1.498;2023-06-26T01:04:05;14.00;;;6.80;;
80293;SDS011;69594;43.516;1.498;2023-06-26T01:06:31;11.30;;;6.82;;
80293;SDS011;69594;43.516;1.498;2023-06-26T01:09:01;12.68;;;7.05;;
80293;SDS011;69594;43.516;1.498;2023-06-26T01:11:30;12.50;;;6.78;;
80293;SDS011;69594;43.516;1.498;2023-06-26T01:13:56;11.40;;;6.83;;
80293;SDS011;69594;43.516;1.498;2023-06-26T01:16:24;13.52;;;6.88;;
80293;SDS011;69594;43.516;1.498;2023-06-26T01:18:51;10.35;;;6.18;;
80293;SDS011;69594;43.516;1.498;2023-06-26T01:21:17;12.60;;;6.70;;
80293;SDS011;69594;43.516;1.498;2023-06-26T01:23:49;10.63;;;5.85;;
80293;SDS011;69594;43.516;1.498;2023-06-26T01:26:34;11.60;;;6.22;;
80293;SDS011;69594;43.516;1.498;2023-06-26T01:29:01;10.98;;;6.82;;
80293;SDS011;69594;43.516;1.498;2023-06-26T01:31:30;11.20;;;6.15;;
80293;SDS011;69594;43.516;1.498;2023-06-26T01:33:57;11.23;;;5.83;;
80293;SDS011;69594;43.516;1.498;2023-06-26T01:36:24;11.88;;;6.60;;
80293;SDS011;69594;43.516;1.498;2023-06-26T01:38:49;11.13;;;6.22;;
80293;SDS011;69594;43.516;1.498;2023-06-26T01:41:16;12.38;;;6.63;;
80293;SDS011;69594;43.516;1.498;2023-06-26T01:46:44;12.70;;;6.87;;
80293;SDS011;69594;43.516;1.498;2023-06-26T01:52:31;11.63;;;6.80;;
80293;SDS011;69594;43.516;1.498;2023-06-26T01:57:42;10.77;;;7.03;;
80293;SDS011;69594;43.516;1.498;2023-06-26T02:00:12;12.87;;;6.43;;
80293;SDS011;69594;43.516;1.498;2023-06-26T02:02:42;12.38;;;7.30;;
80293;SDS011;69594;43.516;1.498;2023-06-26T02:05:09;13.85;;;6.82;;
80293;SDS011;69594;43.516;1.498;2023-06-26T02:07:34;13.23;;;6.80;;
80293;SDS011;69594;43.516;1.498;2023-06-26T02:09:59;14.17;;;7.23;;
80293;SDS011;69594;43.516;1.498;2023-06-26T02:12:25;12.43;;;6.93;;
80293;SDS011;69594;43.516;1.498;2023-06-26T02:14:51;10.67;;;6.97;;
80293;SDS011;69594;43.516;1.498;2023-06-26T02:17:16;12.00;;;6.47;;
80293;SDS011;69594;43.516;1.498;2023-06-26T02:19:42;10.73;;;6.60;;
80293;SDS011;69594;43.516;1.498;2023-06-26T02:22:12;10.32;;;7.05;;
80293;SDS011;69594;43.516;1.498;2023-06-26T02:24:39;12.82;;;6.80;;
80293;SDS011;69594;43.516;1.498;2023-06-26T02:27:04;12.43;;;7.23;;
80293;SDS011;69594;43.516;1.498;2023-06-26T02:29:30;12.47;;;6.80;;
80293;SDS011;69594;43.516;1.498;2023-06-26T02:31:55;12.30;;;7.03;;
80293;SDS011;69594;43.516;1.498;2023-06-26T02:34:20;11.20;;;6.97;;
80293;SDS011;69594;43.516;1.498;2023-06-26T02:36:46;15.87;;;7.47;;
80293;SDS011;69594;43.516;1.498;2023-06-26T02:39:11;11.60;;;7.30;;
80293;SDS011;69594;43.516;1.498;2023-06-26T02:41:37;14.60;;;7.47;;
80293;SDS011;69594;43.516;1.498;2023-06-26T02:44:02;13.03;;;7.70;;
80293;SDS011;69594;43.516;1.498;2023-06-26T02:46:28;13.40;;;7.63;;
80293;SDS011;69594;43.516;1.498;2023-06-26T02:48:53;12.47;;;7.20;;
80293;SDS011;69594;43.516;1.498;2023-06-26T02:51:18;14.90;;;6.87;;
80293;SDS011;69594;43.516;1.498;2023-06-26T02:53:44;13.77;;;6.63;;
80293;SDS011;69594;43.516;1.498;2023-06-26T02:56:09;12.60;;;7.33;;
80293;SDS011;69594;43.516;1.498;2023-06-26T02:58:35;13.67;;;7.60;;
80293;SDS011;69594;43.516;1.498;2023-06-26T03:01:00;16.07;;;8.20;;
80293;SDS011;69594;43.516;1.498;2023-06-26T03:03:26;13.15;;;7.25;;
80293;SDS011;69594;43.516;1.498;2023-06-26T03:05:51;17.03;;;7.63;;
80293;SDS011;69594;43.516;1.498;2023-06-26T03:08:17;14.90;;;8.10;;
80293;SDS011;69594;43.516;1.498;2023-06-26T03:10:42;17.90;;;7.77;;
80293;SDS011;69594;43.516;1.498;2023-06-26T03:13:07;13.23;;;7.82;;
80293;SDS011;69594;43.516;1.498;2023-06-26T03:15:33;13.10;;;7.53;;
80293;SDS011;69594;43.516;1.498;2023-06-26T03:17:58;12.80;;;7.03;;
80293;SDS011;69594;43.516;1.498;2023-06-26T03:20:24;13.20;;;7.50;;
80293;SDS011;69594;43.516;1.498;2023-06-26T03:22:49;15.35;;;8.20;;
80293;SDS011;69594;43.516;1.498;2023-06-26T03:25:15;15.67;;;8.03;;
80293;SDS011;69594;43.516;1.498;2023-06-26T03:27:40;20.87;;;8.50;;
80293;SDS011;69594;43.516;1.498;2023-06-26T03:30:05;14.33;;;7.80;;
80293;SDS011;69594;43.516;1.498;2023-06-26T03:32:31;15.20;;;7.60;;
80293;SDS011;69594;43.516;1.498;2023-06-26T03:34:57;13.50;;;7.60;;
80293;SDS011;69594;43.516;1.498;2023-06-26T03:37:22;16.63;;;7.70;;
80293;SDS011;69594;43.516;1.498;2023-06-26T03:39:47;14.70;;;7.70;;
80293;SDS011;69594;43.516;1.498;2023-06-26T03:42:13;14.67;;;7.27;;
80293;SDS011;69594;43.516;1.498;2023-06-26T03:44:38;12.10;;;7.43;;
80293;SDS011;69594;43.516;1.498;2023-06-26T03:47:05;16.90;;;7.90;;
80293;SDS011;69594;43.516;1.498;2023-06-26T03:49:30;12.65;;;7.72;;
80293;SDS011;69594;43.516;1.498;2023-06-26T03:51:57;11.50;;;7.30;;
80293;SDS011;69594;43.516;1.498;2023-06-26T03:54:23;13.65;;;7.45;;
80293;SDS011;69594;43.516;1.498;2023-06-26T03:56:49;15.13;;;7.43;;
80293;SDS011;69594;43.516;1.498;2023-06-26T03:59:14;16.37;;;7.93;;
80293;SDS011;69594;43.516;1.498;2023-06-26T04:01:39;16.55;;;8.05;;
80293;SDS011;69594;43.516;1.498;2023-06-26T04:04:05;16.30;;;8.10;;
80293;SDS011;69594;43.516;1.498;2023-06-26T04:06:30;14.93;;;7.47;;
80293;SDS011;69594;43.516;1.498;2023-06-26T04:08:59;13.32;;;7.65;;
80293;SDS011;69594;43.516;1.498;2023-06-26T04:11:24;13.47;;;7.60;;
80293;SDS011;69594;43.516;1.498;2023-06-26T04:13:50;13.93;;;7.50;;
80293;SDS011;69594;43.516;1.498;2023-06-26T04:16:15;13.90;;;8.07;;
80293;SDS011;69594;43.516;1.498;2023-06-26T04:18:41;14.10;;;7.30;;
80293;SDS011;69594;43.516;1.498;2023-06-26T04:23:40;14.00;;;7.75;;
80293;SDS011;69594;43.516;1.498;2023-06-26T04:26:06;14.87;;;7.77;;
80293;SDS011;69594;43.516;1.498;2023-06-26T04:28:32;16.85;;;8.73;;
80293;SDS011;69594;43.516;1.498;2023-06-26T04:31:03;14.80;;;8.02;;
80293;SDS011;69594;43.516;1.498;2023-06-26T04:33:29;17.58;;;8.05;;
80293;SDS011;69594;43.516;1.498;2023-06-26T04:35:55;14.53;;;7.73;;
80293;SDS011;69594;43.516;1.498;2023-06-26T04:38:20;16.47;;;8.30;;
80293;SDS011;69594;43.516;1.498;2023-06-26T04:40:46;14.45;;;7.75;;
80293;SDS011;69594;43.516;1.498;2023-06-26T04:43:12;14.98;;;8.02;;
80293;SDS011;69594;43.516;1.498;2023-06-26T04:45:38;13.63;;;7.77;;
80293;SDS011;69594;43.516;1.498;2023-06-26T04:48:03;13.47;;;7.53;;
80293;SDS011;69594;43.516;1.498;2023-06-26T04:50:30;13.98;;;7.50;;
80293;SDS011;69594;43.516;1.498;2023-06-26T04:52:56;14.10;;;7.57;;
80293;SDS011;69594;43.516;1.498;2023-06-26T04:55:23;13.90;;;8.02;;
80293;SDS011;69594;43.516;1.498;2023-06-26T04:57:49;15.52;;;7.75;;
80293;SDS011;69594;43.516;1.498;2023-06-26T05:00:15;13.63;;;7.40;;
80293;SDS011;69594;43.516;1.498;2023-06-26T05:02:41;15.55;;;7.65;;
80293;SDS011;69594;43.516;1.498;2023-06-26T05:05:07;19.37;;;8.00;;
80293;SDS011;69594;43.516;1.498;2023-06-26T05:07:32;13.82;;;6.65;;
80293;SDS011;69594;43.516;1.498;2023-06-26T05:09:58;15.60;;;6.83;;
80293;SDS011;69594;43.516;1.498;2023-06-26T05:12:23;15.80;;;7.83;;
80293;SDS011;69594;43.516;1.498;2023-06-26T05:14:49;14.45;;;6.75;;
80293;SDS011;69594;43.516;1.498;2023-06-26T05:17:14;16.70;;;7.07;;
80293;SDS011;69594;43.516;1.498;2023-06-26T05:19:40;11.57;;;6.57;;
80293;SDS011;69594;43.516;1.498;2023-06-26T05:22:06;14.73;;;7.38;;
80293;SDS011;69594;43.516;1.498;2023-06-26T05:24:35;11.23;;;6.50;;
80293;SDS011;69594;43.516;1.498;2023-06-26T05:27:03;14.50;;;6.30;;
80293;SDS011;69594;43.516;1.498;2023-06-26T05:29:32;12.10;;;7.20;;
80293;SDS011;69594;43.516;1.498;2023-06-26T05:31:58;12.77;;;6.68;;
80293;SDS011;69594;43.516;1.498;2023-06-26T05:34:25;11.25;;;6.40;;
80293;SDS011;69594;43.516;1.498;2023-06-26T05:36:54;12.30;;;6.70;;
80293;SDS011;69594;43.516;1.498;2023-06-26T05:39:22;12.48;;;6.22;;
80293;SDS011;69594;43.516;1.498;2023-06-26T05:41:49;13.32;;;6.82;;
80293;SDS011;69594;43.516;1.498;2023-06-26T05:44:15;14.15;;;6.25;;
80293;SDS011;69594;43.516;1.498;2023-06-26T05:46:41;10.57;;;6.80;;
80293;SDS011;69594;43.516;1.498;2023-06-26T05:49:06;11.90;;;6.20;;
80293;SDS011;69594;43.516;1.498;2023-06-26T05:51:32;10.27;;;5.97;;
80293;SDS011;69594;43.516;1.498;2023-06-26T05:53:57;11.43;;;6.10;;
80293;SDS011;69594;43.516;1.498;2023-06-26T05:56:23;10.25;;;5.63;;
80293;SDS011;69594;43.516;1.498;2023-06-26T05:58:49;9.13;;;4.97;;
80293;SDS011;69594;43.516;1.498;2023-06-26T06:01:16;12.20;;;6.50;;
80293;SDS011;69594;43.516;1.498;2023-06-26T06:03:41;10.00;;;4.77;;
80293;SDS011;69594;43.516;1.498;2023-06-26T06:06:07;8.60;;;5.13;;
80293;SDS011;69594;43.516;1.498;2023-06-26T06:08:32;10.25;;;5.75;;
80293;SDS011;69594;43.516;1.498;2023-06-26T06:10:59;13.00;;;5.37;;
80293;SDS011;69594;43.516;1.498;2023-06-26T06:13:25;9.98;;;5.95;;
80293;SDS011;69594;43.516;1.498;2023-06-26T06:15:50;10.67;;;5.70;;
80293;SDS011;69594;43.516;1.498;2023-06-26T06:18:16;9.73;;;4.90;;
80293;SDS011;69594;43.516;1.498;2023-06-26T06:20:41;10.25;;;4.90;;
80293;SDS011;69594;43.516;1.498;2023-06-26T06:23:07;10.90;;;4.43;;
80293;SDS011;69594;43.516;1.498;2023-06-26T06:25:32;7.17;;;4.40;;
80293;SDS011;69594;43.516;1.498;2023-06-26T06:27:58;9.75;;;4.40;;
80293;SDS011;69594;43.516;1.498;2023-06-26T06:30:23;10.23;;;5.00;;
80293;SDS011;69594;43.516;1.498;2023-06-26T06:32:49;17.00;;;5.73;;
80293;SDS011;69594;43.516;1.498;2023-06-26T06:35:16;8.40;;;4.60;;
80293;SDS011;69594;43.516;1.498;2023-06-26T06:37:44;7.78;;;4.13;;
80293;SDS011;69594;43.516;1.498;2023-06-26T06:40:10;9.40;;;4.53;;
80293;SDS011;69594;43.516;1.498;2023-06-26T06:42:36;8.40;;;4.43;;
80293;SDS011;69594;43.516;1.498;2023-06-26T06:45:04;11.43;;;4.20;;
80293;SDS011;69594;43.516;1.498;2023-06-26T06:47:34;8.80;;;4.75;;
80293;SDS011;69594;43.516;1.498;2023-06-26T06:50:00;10.00;;;4.60;;
80293;SDS011;69594;43.516;1.498;2023-06-26T06:52:34;10.63;;;4.60;;
80293;SDS011;69594;43.516;1.498;2023-06-26T06:55:00;8.35;;;5.05;;
80293;SDS011;69594;43.516;1.498;2023-06-26T06:57:31;10.55;;;4.70;;
80293;SDS011;69594;43.516;1.498;2023-06-26T07:00:01;8.30;;;4.50;;
80293;SDS011;69594;43.516;1.498;2023-06-26T07:02:29;8.10;;;3.80;;
80293;SDS011;69594;43.516;1.498;2023-06-26T07:04:55;7.57;;;4.32;;
80293;SDS011;69594;43.516;1.498;2023-06-26T07:07:20;8.37;;;4.50;;
80293;SDS011;69594;43.516;1.498;2023-06-26T07:09:45;9.10;;;4.70;;
80293;SDS011;69594;43.516;1.498;2023-06-26T07:12:11;10.38;;;4.38;;
80293;SDS011;69594;43.516;1.498;2023-06-26T07:14:36;8.77;;;4.30;;
80293;SDS011;69594;43.516;1.498;2023-06-26T07:17:02;9.93;;;5.20;;
80293;SDS011;69594;43.516;1.498;2023-06-26T07:19:27;9.77;;;4.60;;
80293;SDS011;69594;43.516;1.498;2023-06-26T07:21:53;11.80;;;4.93;;
80293;SDS011;69594;43.516;1.498;2023-06-26T07:24:18;10.30;;;5.38;;
80293;SDS011;69594;43.516;1.498;2023-06-26T07:26:43;12.40;;;5.77;;
80293;SDS011;69594;43.516;1.498;2023-06-26T07:29:09;8.97;;;5.50;;
80293;SDS011;69594;43.516;1.498;2023-06-26T07:31:34;13.30;;;5.17;;
80293;SDS011;69594;43.516;1.498;2023-06-26T07:34:00;10.23;;;5.25;;
80293;SDS011;69594;43.516;1.498;2023-06-26T07:36:25;11.83;;;5.53;;
80293;SDS011;69594;43.516;1.498;2023-06-26T07:38:51;10.37;;;4.90;;
80293;SDS011;69594;43.516;1.498;2023-06-26T07:41:16;10.83;;;4.73;;
80293;SDS011;69594;43.516;1.498;2023-06-26T07:43:41;11.50;;;4.82;;
80293;SDS011;69594;43.516;1.498;2023-06-26T07:46:07;11.87;;;4.63;;
80293;SDS011;69594;43.516;1.498;2023-06-26T07:48:32;12.17;;;5.50;;
80293;SDS011;69594;43.516;1.498;2023-06-26T07:51:01;9.63;;;4.18;;
80293;SDS011;69594;43.516;1.498;2023-06-26T07:53:27;11.00;;;5.03;;
80293;SDS011;69594;43.516;1.498;2023-06-26T07:55:52;12.25;;;4.97;;
80293;SDS011;69594;43.516;1.498;2023-06-26T07:58:18;11.47;;;5.03;;
80293;SDS011;69594;43.516;1.498;2023-06-26T08:00:43;11.93;;;4.60;;
80293;SDS011;69594;43.516;1.498;2023-06-26T08:03:08;8.87;;;4.70;;
80293;SDS011;69594;43.516;1.498;2023-06-26T08:05:34;9.07;;;4.67;;
80293;SDS011;69594;43.516;1.498;2023-06-26T08:07:59;10.25;;;4.63;;
80293;SDS011;69594;43.516;1.498;2023-06-26T08:10:27;8.23;;;4.30;;
80293;SDS011;69594;43.516;1.498;2023-06-26T08:12:52;7.40;;;4.30;;
80293;SDS011;69594;43.516;1.498;2023-06-26T08:15:17;8.13;;;4.47;;
80293;SDS011;69594;43.516;1.498;2023-06-26T08:17:43;9.43;;;4.60;;
80293;SDS011;69594;43.516;1.498;2023-06-26T08:20:08;9.75;;;4.93;;
80293;SDS011;69594;43.516;1.498;2023-06-26T08:22:35;10.20;;;5.27;;
80293;SDS011;69594;43.516;1.498;2023-06-26T08:25:01;10.55;;;4.15;;
80293;SDS011;69594;43.516;1.498;2023-06-26T08:27:27;9.47;;;3.63;;
80293;SDS011;69594;43.516;1.498;2023-06-26T08:29:53;7.78;;;4.75;;
80293;SDS011;69594;43.516;1.498;2023-06-26T08:32:18;10.70;;;4.43;;
80293;SDS011;69594;43.516;1.498;2023-06-26T08:34:44;9.17;;;4.30;;
80293;SDS011;69594;43.516;1.498;2023-06-26T08:37:09;8.53;;;4.53;;
80293;SDS011;69594;43.516;1.498;2023-06-26T08:39:35;10.82;;;4.63;;
80293;SDS011;69594;43.516;1.498;2023-06-26T08:42:00;10.30;;;4.63;;
80293;SDS011;69594;43.516;1.498;2023-06-26T08:44:26;7.57;;;3.63;;
80293;SDS011;69594;43.516;1.498;2023-06-26T08:46:51;10.07;;;4.32;;
80293;SDS011;69594;43.516;1.498;2023-06-26T08:49:20;7.63;;;3.87;;
80293;SDS011;69594;43.516;1.498;2023-06-26T08:51:51;9.45;;;3.83;;
80293;SDS011;69594;43.516;1.498;2023-06-26T08:54:22;8.35;;;4.22;;
80293;SDS011;69594;43.516;1.498;2023-06-26T08:56:53;11.73;;;4.73;;
80293;SDS011;69594;43.516;1.498;2023-06-26T08:59:21;6.47;;;3.05;;
80293;SDS011;69594;43.516;1.498;2023-06-26T09:01:46;7.28;;;3.60;;
80293;SDS011;69594;43.516;1.498;2023-06-26T09:04:12;7.30;;;4.20;;
80293;SDS011;69594;43.516;1.498;2023-06-26T09:06:39;9.37;;;4.57;;
80293;SDS011;69594;43.516;1.498;2023-06-26T09:09:04;7.03;;;3.75;;
80293;SDS011;69594;43.516;1.498;2023-06-26T09:11:30;8.20;;;3.80;;
80293;SDS011;69594;43.516;1.498;2023-06-26T09:13:55;10.47;;;3.73;;
80293;SDS011;69594;43.516;1.498;2023-06-26T09:16:24;10.70;;;3.55;;
80293;SDS011;69594;43.516;1.498;2023-06-26T09:18:53;7.60;;;4.00;;
80293;SDS011;69594;43.516;1.498;2023-06-26T09:21:19;8.67;;;3.80;;
80293;SDS011;69594;43.516;1.498;2023-06-26T09:23:46;6.33;;;3.83;;
80293;SDS011;69594;43.516;1.498;2023-06-26T09:26:11;8.00;;;4.10;;
80293;SDS011;69594;43.516;1.498;2023-06-26T09:28:37;9.75;;;3.95;;
80293;SDS011;69594;43.516;1.498;2023-06-26T09:31:04;8.30;;;4.05;;
80293;SDS011;69594;43.516;1.498;2023-06-26T09:33:36;6.75;;;3.88;;
80293;SDS011;69594;43.516;1.498;2023-06-26T09:36:06;7.17;;;3.60;;
80293;SDS011;69594;43.516;1.498;2023-06-26T09:38:34;6.97;;;3.55;;
80293;SDS011;69594;43.516;1.498;2023-06-26T09:41:01;6.18;;;3.33;;
80293;SDS011;69594;43.516;1.498;2023-06-26T09:43:27;7.38;;;3.60;;
80293;SDS011;69594;43.516;1.498;2023-06-26T09:45:52;5.67;;;3.53;;
80293;SDS011;69594;43.516;1.498;2023-06-26T09:48:19;6.35;;;3.40;;
80293;SDS011;69594;43.516;1.498;2023-06-26T09:50:46;6.57;;;3.13;;
80293;SDS011;69594;43.516;1.498;2023-06-26T09:53:13;4.97;;;3.07;;
80293;SDS011;69594;43.516;1.498;2023-06-26T09:55:39;6.20;;;3.00;;
80293;SDS011;69594;43.516;1.498;2023-06-26T09:58:10;6.03;;;3.30;;
80293;SDS011;69594;43.516;1.498;2023-06-26T10:00:40;7.00;;;3.70;;
80293;SDS011;69594;43.516;1.498;2023-06-26T10:03:07;9.93;;;3.92;;
80293;SDS011;69594;43.516;1.498;2023-06-26T10:05:33;5.73;;;3.37;;
80293;SDS011;69594;43.516;1.498;2023-06-26T10:07:59;7.20;;;3.17;;
80293;SDS011;69594;43.516;1.498;2023-06-26T10:10:25;6.25;;;3.53;;
80293;SDS011;69594;43.516;1.498;2023-06-26T10:12:54;5.53;;;3.57;;
80293;SDS011;69594;43.516;1.498;2023-06-26T10:15:24;7.93;;;3.80;;
80293;SDS011;69594;43.516;1.498;2023-06-26T10:17:50;5.82;;;3.83;;
80293;SDS011;69594;43.516;1.498;2023-06-26T10:20:20;7.22;;;3.85;;
80293;SDS011;69594;43.516;1.498;2023-06-26T10:22:46;9.77;;;4.20;;
80293;SDS011;69594;43.516;1.498;2023-06-26T10:25:21;8.68;;;3.90;;
80293;SDS011;69594;43.516;1.498;2023-06-26T10:28:02;8.45;;;4.18;;
80293;SDS011;69594;43.516;1.498;2023-06-26T10:30:31;7.35;;;3.60;;
80293;SDS011;69594;43.516;1.498;2023-06-26T10:33:00;7.20;;;3.80;;
80293;SDS011;69594;43.516;1.498;2023-06-26T10:35:27;8.13;;;4.00;;
80293;SDS011;69594;43.516;1.498;2023-06-26T10:37:54;8.55;;;3.92;;
80293;SDS011;69594;43.516;1.498;2023-06-26T10:40:27;6.13;;;3.83;;
80293;SDS011;69594;43.516;1.498;2023-06-26T10:43:06;7.50;;;4.00;;
80293;SDS011;69594;43.516;1.498;2023-06-26T10:45:33;7.95;;;4.10;;
80293;SDS011;69594;43.516;1.498;2023-06-26T10:48:01;8.20;;;4.25;;
80293;SDS011;69594;43.516;1.498;2023-06-26T10:50:28;7.10;;;4.22;;
80293;SDS011;69594;43.516;1.498;2023-06-26T10:58:30;9.27;;;4.03;;
80293;SDS011;69594;43.516;1.498;2023-06-26T11:03:37;7.28;;;3.85;;
80293;SDS011;69594;43.516;1.498;2023-06-26T11:06:13;6.00;;;3.58;;
80293;SDS011;69594;43.516;1.498;2023-06-26T11:08:53;8.57;;;3.63;;
80293;SDS011;69594;43.516;1.498;2023-06-26T11:11:20;7.68;;;4.07;;
80293;SDS011;69594;43.516;1.498;2023-06-26T11:14:05;6.68;;;3.72;;
80293;SDS011;69594;43.516;1.498;2023-06-26T11:16:32;9.25;;;3.42;;
80293;SDS011;69594;43.516;1.498;2023-06-26T11:18:58;7.57;;;3.63;;
80293;SDS011;69594;43.516;1.498;2023-06-26T11:21:23;8.57;;;3.95;;
80293;SDS011;69594;43.516;1.498;2023-06-26T11:23:49;7.50;;;3.83;;
80293;SDS011;69594;43.516;1.498;2023-06-26T11:26:17;9.13;;;4.30;;
80293;SDS011;69594;43.516;1.498;2023-06-26T11:28:50;6.90;;;3.60;;
80293;SDS011;69594;43.516;1.498;2023-06-26T11:31:25;7.75;;;4.13;;
80293;SDS011;69594;43.516;1.498;2023-06-26T11:33:58;8.70;;;4.05;;
80293;SDS011;69594;43.516;1.498;2023-06-26T11:36:28;5.88;;;3.92;;
80293;SDS011;69594;43.516;1.498;2023-06-26T11:38:55;7.63;;;3.83;;
80293;SDS011;69594;43.516;1.498;2023-06-26T11:41:21;8.85;;;3.70;;
80293;SDS011;69594;43.516;1.498;2023-06-26T11:43:47;6.53;;;3.80;;
80293;SDS011;69594;43.516;1.498;2023-06-26T11:46:12;6.13;;;3.53;;
80293;SDS011;69594;43.516;1.498;2023-06-26T11:48:38;8.00;;;3.83;;
80293;SDS011;69594;43.516;1.498;2023-06-26T11:51:04;9.57;;;3.90;;
80293;SDS011;69594;43.516;1.498;2023-06-26T11:53:30;7.63;;;3.92;;
80293;SDS011;69594;43.516;1.498;2023-06-26T11:55:56;8.95;;;4.00;;
80293;SDS011;69594;43.516;1.498;2023-06-26T11:58:22;6.10;;;3.93;;
80293;SDS011;69594;43.516;1.498;2023-06-26T12:00:49;6.40;;;3.30;;
80293;SDS011;69594;43.516;1.498;2023-06-26T12:03:14;6.47;;;3.40;;
80293;SDS011;69594;43.516;1.498;2023-06-26T12:05:40;6.80;;;3.42;;
80293;SDS011;69594;43.516;1.498;2023-06-26T12:08:06;9.05;;;3.55;;
80293;SDS011;69594;43.516;1.498;2023-06-26T12:10:32;6.80;;;3.40;;
80293;SDS011;69594;43.516;1.498;2023-06-26T12:12:58;6.35;;;3.50;;
80293;SDS011;69594;43.516;1.498;2023-06-26T12:15:26;7.05;;;3.38;;
80293;SDS011;69594;43.516;1.498;2023-06-26T12:17:53;5.78;;;3.80;;
80293;SDS011;69594;43.516;1.498;2023-06-26T12:20:19;5.87;;;3.60;;
80293;SDS011;69594;43.516;1.498;2023-06-26T12:22:47;6.68;;;3.70;;
80293;SDS011;69594;43.516;1.498;2023-06-26T12:25:13;7.32;;;4.00;;
80293;SDS011;69594;43.516;1.498;2023-06-26T12:27:39;5.00;;;3.67;;
80293;SDS011;69594;43.516;1.498;2023-06-26T12:30:05;6.95;;;4.03;;
80293;SDS011;69594;43.516;1.498;2023-06-26T12:32:31;6.82;;;3.80;;
80293;SDS011;69594;43.516;1.498;2023-06-26T12:34:59;6.30;;;4.03;;
80293;SDS011;69594;43.516;1.498;2023-06-26T12:37:25;9.18;;;4.07;;
80293;SDS011;69594;43.516;1.498;2023-06-26T12:39:52;6.15;;;4.03;;
80293;SDS011;69594;43.516;1.498;2023-06-26T12:42:25;7.78;;;3.75;;
80293;SDS011;69594;43.516;1.498;2023-06-26T12:44:52;9.43;;;4.33;;
80293;SDS011;69594;43.516;1.498;2023-06-26T12:47:25;7.57;;;4.20;;
80293;SDS011;69594;43.516;1.498;2023-06-26T12:49:52;7.63;;;3.90;;
80293;SDS011;69594;43.516;1.498;2023-06-26T12:52:20;8.45;;;4.43;;
80293;SDS011;69594;43.516;1.498;2023-06-26T12:54:46;7.97;;;4.00;;
80293;SDS011;69594;43.516;1.498;2023-06-26T12:57:16;6.97;;;4.00;;
80293;SDS011;69594;43.516;1.498;2023-06-26T12:59:41;8.07;;;3.97;;
80293;SDS011;69594;43.516;1.498;2023-06-26T13:02:07;7.47;;;4.30;;
80293;SDS011;69594;43.516;1.498;2023-06-26T13:04:34;7.83;;;4.67;;
80293;SDS011;69594;43.516;1.498;2023-06-26T13:07:00;7.50;;;4.20;;
80293;SDS011;69594;43.516;1.498;2023-06-26T13:09:26;8.32;;;4.10;;
80293;SDS011;69594;43.516;1.498;2023-06-26T13:11:58;6.40;;;3.92;;
80293;SDS011;69594;43.516;1.498;2023-06-26T13:14:24;6.70;;;4.27;;
80293;SDS011;69594;43.516;1.498;2023-06-26T13:16:49;7.13;;;4.32;;
80293;SDS011;69594;43.516;1.498;2023-06-26T13:19:15;7.97;;;4.67;;
80293;SDS011;69594;43.516;1.498;2023-06-26T13:21:40;7.17;;;4.27;;
80293;SDS011;69594;43.516;1.498;2023-06-26T13:24:06;7.97;;;4.05;;
80293;SDS011;69594;43.516;1.498;2023-06-26T13:26:32;7.47;;;4.63;;
80293;SDS011;69594;43.516;1.498;2023-06-26T13:28:58;6.47;;;4.07;;
80293;SDS011;69594;43.516;1.498;2023-06-26T13:31:24;8.03;;;4.50;;
80293;SDS011;69594;43.516;1.498;2023-06-26T13:33:49;6.38;;;4.28;;
80293;SDS011;69594;43.516;1.498;2023-06-26T13:36:16;6.00;;;3.47;;
80293;SDS011;69594;43.516;1.498;2023-06-26T13:38:41;9.10;;;4.10;;
80293;SDS011;69594;43.516;1.498;2023-06-26T13:41:07;7.07;;;4.00;;
80293;SDS011;69594;43.516;1.498;2023-06-26T13:43:33;6.05;;;3.72;;
80293;SDS011;69594;43.516;1.498;2023-06-26T13:45:59;7.63;;;3.97;;
80293;SDS011;69594;43.516;1.498;2023-06-26T13:48:25;7.20;;;3.80;;
80293;SDS011;69594;43.516;1.498;2023-06-26T13:50:51;8.70;;;3.92;;
80293;SDS011;69594;43.516;1.498;2023-06-26T13:53:17;6.67;;;4.10;;
80293;SDS011;69594;43.516;1.498;2023-06-26T13:55:43;6.57;;;3.70;;
80293;SDS011;69594;43.516;1.498;2023-06-26T13:58:09;7.37;;;4.20;;
80293;SDS011;69594;43.516;1.498;2023-06-26T14:00:35;8.60;;;4.38;;
80293;SDS011;69594;43.516;1.498;2023-06-26T14:03:02;6.70;;;3.90;;
80293;SDS011;69594;43.516;1.498;2023-06-26T14:05:35;7.47;;;4.10;;
80293;SDS011;69594;43.516;1.498;2023-06-26T14:08:06;6.43;;;4.13;;
80293;SDS011;69594;43.516;1.498;2023-06-26T14:10:32;9.50;;;3.83;;
80293;SDS011;69594;43.516;1.498;2023-06-26T14:13:01;7.07;;;3.50;;
80293;SDS011;69594;43.516;1.498;2023-06-26T14:15:28;7.45;;;4.35;;
80293;SDS011;69594;43.516;1.498;2023-06-26T14:17:53;8.30;;;3.97;;
80293;SDS011;69594;43.516;1.498;2023-06-26T14:20:21;8.02;;;3.80;;
80293;SDS011;69594;43.516;1.498;2023-06-26T14:22:47;7.68;;;4.40;;
80293;SDS011;69594;43.516;1.498;2023-06-26T14:25:14;8.33;;;3.97;;
80293;SDS011;69594;43.516;1.498;2023-06-26T14:27:40;9.00;;;4.50;;
80293;SDS011;69594;43.516;1.498;2023-06-26T14:30:06;6.28;;;4.13;;
80293;SDS011;69594;43.516;1.498;2023-06-26T14:32:35;6.65;;;4.35;;
80293;SDS011;69594;43.516;1.498;2023-06-26T14:35:01;7.93;;;4.20;;
80293;SDS011;69594;43.516;1.498;2023-06-26T14:37:29;7.00;;;3.70;;
80293;SDS011;69594;43.516;1.498;2023-06-26T14:39:56;6.88;;;4.40;;
80293;SDS011;69594;43.516;1.498;2023-06-26T14:42:22;8.32;;;4.18;;
80293;SDS011;69594;43.516;1.498;2023-06-26T14:44:47;7.40;;;4.23;;
80293;SDS011;69594;43.516;1.498;2023-06-26T14:47:15;6.25;;;4.03;;
80293;SDS011;69594;43.516;1.498;2023-06-26T14:49:43;6.95;;;4.45;;
80293;SDS011;69594;43.516;1.498;2023-06-26T14:52:10;5.80;;;3.37;;
80293;SDS011;69594;43.516;1.498;2023-06-26T14:54:36;8.05;;;4.13;;
80293;SDS011;69594;43.516;1.498;2023-06-26T14:57:02;6.83;;;4.13;;